Plainfield, Illinois
Current Conditions -  °F | °C
As of 4:35 PM on Friday 24 Oct 2014 (Local Time) from KLOT Reporting Station
Clear Clear  
Wind Chill: 20°   Ceiling: Unl
Heat Index: 20°   Visibility: 10mi
Dew Point:   Wind: 3mph
Humidity: 40%   Direction: 260°W
Pressure: 29.97"   Gusts: NA
Location:  41.62°N, 88.2°W
Report Text: KLOT 242135Z AUTO 26003KT 10SM CLR 20/06 A2997 RMK AO2 T01960057
Loading
Personal Weather Stations






























Interactive Weather Map
Tropical Storm Tracking
New forecast layout! Learn more

10-Day Weather Forecast

Advertisements
Track Severe Weather on mobile